Terminal Aerodrome Forecast
Issued by NWS Topeka, KS

Home | Current Version | Previous Version | Graphics & Text | Print | Product List | Glossary On
Versions: 1 2 3 4 5 6 7 8 9 10 11 12 13 14 15 16
000
FTUS43 KTOP 270500
TAFTOP
TAF
KTOP 270520Z 2706/2806 02011KT P6SM OVC009
     FM270800 36007KT P6SM BKN012 OVC025
     FM271200 01005KT P6SM SCT035=

USA.gov is the U.S. government's official web portal to all federal, state and local government web resources and services.